| time (UTC) | temp F | wind direction | speed MPH | gust MPH | rain 1hr in | rain 24hr in | rain mn in | humidity % | barometer mb |
| 20260510054801 | 67 | 51 | 0.0 | 0.0 | 0.00 | 0.00 | 0.00 | 79 | 1009.9 |
| 20260510054258 | 67 | 157 | 0.0 | 0.0 | 0.00 | 0.00 | 0.00 | 79 | 1009.9 |
| 20260510053758 | 67 | 127 | 0.0 | 0.0 | 0.00 | 0.00 | 0.00 | 79 | 1009.9 |
| 20260510053254 | 66 | 108 | 0.0 | 0.0 | 0.00 | 0.00 | 0.00 | 79 | 1009.9 |
| 20260510052750 | 66 | 149 | 0.0 | 0.0 | 0.00 | 0.00 | 0.00 | 79 | 1009.9 |
| 20260510052246 | 66 | 137 | 0.0 | 0.0 | 0.00 | 0.00 | 0.00 | 79 | 1009.9 |
| 20260510051742 | 66 | 77 | 0.0 | 0.0 | 0.00 | 0.00 | 0.00 | 79 | 1009.9 |
| 20260510051239 | 66 | 145 | 0.0 | 0.0 | 0.00 | 0.00 | 0.00 | 79 | 1010.2 |
| 20260510050736 | 66 | 153 | 0.0 | 0.0 | 0.00 | 0.00 | 0.00 | 79 | 1010.5 |
| 20260510050233 | 66 | 139 | 0.0 | 0.0 | 0.00 | 0.00 | 0.00 | 79 | 1010.2 |
| 20260510045729 | 66 | 137 | 0.0 | 0.0 | 0.00 | 0.00 | 0.00 | 79 | 1010.2 |
| 20260510045226 | 66 | 103 | 0.0 | 0.0 | 0.00 | 0.00 | 0.00 | 79 | 1010.5 |
| 20260510044722 | 66 | 67 | 0.0 | 0.0 | 0.00 | 0.00 | 0.00 | 79 | 1010.5 |
| 20260510044221 | 66 | 100 | 0.0 | 0.0 | 0.00 | 0.00 | 0.00 | 79 | 1010.5 |
| 20260510043716 | 67 | 86 | 0.0 | 0.0 | 0.00 | 0.00 | 0.00 | 79 | 1010.5 |
| 20260510043213 | 67 | 64 | 0.0 | 0.0 | 0.00 | 0.00 | 0.00 | 79 | 1010.9 |
| 20260510042710 | 67 | 35 | 0.0 | 0.0 | 0.00 | 0.00 | 0.00 | 79 | 1010.5 |
| 20260510042206 | 67 | 110 | 0.0 | 0.0 | 0.00 | 0.00 | 0.00 | 79 | 1010.9 |
| 20260510041703 | 67 | 76 | 0.0 | 0.0 | 0.00 | 0.00 | 0.00 | 79 | 1010.5 |
| 20260510041200 | 66 | 91 | 0.0 | 0.0 | 0.00 | 0.00 | 0.00 | 79 | 1010.5 |
| 20260510040657 | 66 | 336 | 0.0 | 0.0 | 0.00 | 0.00 | 0.00 | 79 | 1010.5 |
| 20260510040154 | 66 | 34 | 0.0 | 0.0 | 0.00 | 0.00 | 0.00 | 79 | 1010.2 |
| 20260510035649 | 66 | 138 | 0.0 | 0.0 | 0.00 | 2.93 | 2.93 | 79 | 1010.2 |
| 20260510035145 | 66 | 36 | 0.0 | 0.0 | 0.00 | 2.93 | 2.93 | 79 | 1010.2 |
| 20260510034642 | 66 | 63 | 0.0 | 0.0 | 0.00 | 2.93 | 2.93 | 79 | 1010.2 |
| 20260510034139 | 66 | 126 | 0.0 | 0.0 | 0.00 | 2.93 | 2.93 | 79 | 1010.2 |
| 20260510033635 | 66 | 63 | 0.0 | 0.0 | 0.00 | 2.93 | 2.93 | 79 | 1009.9 |
| 20260510033133 | 66 | 121 | 0.0 | 0.0 | 0.00 | 2.93 | 2.93 | 79 | 1009.9 |
| 20260510032629 | 66 | 130 | 0.0 | 0.0 | 0.00 | 2.93 | 2.93 | 79 | 1009.5 |
| 20260510032124 | 66 | 93 | 0.0 | 0.0 | 0.00 | 2.93 | 2.93 | 79 | 1009.5 |
| 20260510031619 | 66 | 104 | 0.0 | 0.0 | 0.00 | 2.93 | 2.93 | 79 | 1009.5 |
| 20260510031116 | 66 | 119 | 0.0 | 0.0 | 0.00 | 2.93 | 2.93 | 79 | 1009.2 |
| 20260510030611 | 66 | 120 | 0.0 | 0.0 | 0.00 | 2.93 | 2.93 | 79 | 1009.5 |
| 20260510030109 | 66 | 156 | 0.0 | 0.0 | 0.00 | 2.93 | 2.93 | 79 | 1009.9 |
| 20260510025606 | 66 | 147 | 0.0 | 0.0 | 0.00 | 2.93 | 2.93 | 79 | 1009.5 |
| 20260510025103 | 66 | 111 | 0.0 | 0.0 | 0.00 | 2.93 | 2.93 | 79 | 1009.5 |
| 20260510024600 | 66 | 122 | 0.0 | 0.0 | 0.00 | 2.93 | 2.93 | 79 | 1009.5 |
| 20260510024056 | 66 | 113 | 0.0 | 0.0 | 0.00 | 2.93 | 2.93 | 79 | 1009.9 |
| 20260510023552 | 66 | 112 | 0.0 | 0.0 | 0.00 | 2.93 | 2.93 | 79 | 1010.2 |
| 20260510023050 | 66 | 112 | 0.0 | 0.0 | 0.00 | 2.93 | 2.93 | 79 | 1009.9 |
| 20260510022550 | 66 | 95 | 0.0 | 0.0 | 0.00 | 2.93 | 2.93 | 79 | 1010.2 |
| 20260510022049 | 66 | 187 | 0.0 | 0.0 | 0.00 | 2.93 | 2.93 | 79 | 1010.2 |
| 20260510021546 | 66 | 349 | 0.0 | 0.0 | 0.00 | 2.93 | 2.93 | 79 | 1010.2 |
| 20260510021044 | 66 | 192 | 0.0 | 0.0 | 0.00 | 2.93 | 2.93 | 79 | 1010.2 |
| 20260510020544 | 66 | 302 | 0.0 | 0.0 | 0.00 | 2.93 | 2.93 | 79 | 1010.2 |
| 20260510020040 | 66 | 256 | 3.0 | 5.0 | 0.00 | 2.93 | 2.93 | 79 | 1010.2 |
| 20260510015536 | 66 | 234 | 0.0 | 0.0 | 0.00 | 2.93 | 2.93 | 79 | 1009.2 |
| 20260510015032 | 66 | 178 | 0.0 | 0.0 | 0.00 | 2.93 | 2.93 | 79 | 1009.2 |
| 20260510014528 | 66 | 200 | 1.0 | 2.0 | 0.00 | 2.93 | 2.93 | 79 | 1009.2 |
| 20260510014026 | 66 | 184 | 0.0 | 0.0 | 0.00 | 2.93 | 2.93 | 79 | 1008.8 |
| 20260510013520 | 66 | 166 | 0.0 | 0.0 | 0.00 | 2.93 | 2.93 | 79 | 1008.8 |
| 20260510013017 | 66 | 175 | 0.0 | 0.0 | 0.00 | 2.93 | 2.93 | 79 | 1008.8 |
| 20260510012516 | 66 | 114 | 0.0 | 0.0 | 0.00 | 2.93 | 2.93 | 79 | 1009.2 |
| 20260510012013 | 66 | 190 | 0.0 | 0.0 | 0.00 | 2.93 | 2.93 | 79 | 1009.5 |
| 20260510011507 | 66 | 189 | 0.0 | 0.0 | 0.00 | 2.93 | 2.93 | 79 | 1009.5 |
| 20260510011003 | 66 | 105 | 0.0 | 0.0 | 0.00 | 2.93 | 2.93 | 79 | 1009.5 |
| 20260510010500 | 66 | 165 | 0.0 | 0.0 | 0.07 | 2.93 | 2.93 | 79 | 1009.9 |
| 20260510005957 | 66 | 175 | 0.0 | 0.0 | 0.07 | 2.93 | 2.93 | 79 | 1009.9 |
| 20260510005453 | 66 | 183 | 0.0 | 0.0 | 0.00 | 2.92 | 2.92 | 79 | 1009.9 |
| 20260510004951 | 66 | 209 | 0.0 | 0.0 | 0.00 | 2.92 | 2.92 | 79 | 1010.2 |
| 20260510004447 | 66 | 288 | 0.0 | 0.0 | 0.07 | 2.92 | 2.92 | 79 | 1010.2 |
| 20260510003946 | 66 | 176 | 0.0 | 0.0 | 0.07 | 2.92 | 2.92 | 79 | 1010.5 |
| 20260510003442 | 66 | 143 | 0.0 | 0.0 | 0.00 | 2.91 | 2.91 | 79 | 1010.2 |
| 20260510002942 | 66 | 188 | 0.0 | 0.0 | 0.00 | 2.91 | 2.91 | 79 | 1010.2 |
| 20260510002439 | 66 | 226 | 0.0 | 0.0 | 0.07 | 2.91 | 2.91 | 79 | 1009.9 |
| 20260510001935 | 66 | 193 | 0.0 | 0.0 | 0.07 | 2.91 | 2.91 | 79 | 1009.9 |
| 20260510001433 | 66 | 207 | 0.0 | 0.0 | 0.00 | 2.89 | 2.89 | 79 | 1009.5 |
| 20260510000931 | 66 | 192 | 0.0 | 0.0 | 0.00 | 2.89 | 2.89 | 79 | 1009.2 |
| 20260510000427 | 66 | 193 | 0.0 | 0.0 | 0.00 | 2.89 | 2.89 | 79 | 1008.8 |
| 20260509235923 | 66 | 194 | 0.0 | 0.0 | 0.00 | 2.89 | 2.89 | 79 | 1008.8 |
| 20260509235420 | 66 | 139 | 0.0 | 0.0 | 0.00 | 2.89 | 2.89 | 79 | 1008.5 |
| 20260509234916 | 66 | 169 | 0.0 | 0.0 | 0.00 | 2.89 | 2.89 | 79 | 1008.8 |
| 20260509234413 | 66 | 30 | 0.0 | 0.0 | 0.00 | 2.89 | 2.89 | 79 | 1008.8 |
| 20260509233911 | 66 | 50 | 0.0 | 0.0 | 0.00 | 2.89 | 2.89 | 79 | 1008.8 |
| 20260509233408 | 66 | 158 | 0.0 | 0.0 | 0.00 | 2.89 | 2.89 | 79 | 1008.8 |
| 20260509232904 | 66 | 199 | 0.0 | 2.0 | 0.00 | 2.89 | 2.89 | 79 | 1008.8 |
| 20260509232402 | 66 | 326 | 5.0 | 8.0 | 0.00 | 2.89 | 2.89 | 79 | 1008.8 |
| 20260509231858 | 66 | 130 | 0.0 | 0.0 | 0.00 | 2.89 | 2.89 | 79 | 1008.2 |
| 20260509231355 | 66 | 214 | 0.0 | 0.0 | 0.00 | 2.89 | 2.89 | 79 | 1007.8 |
| 20260509230853 | 66 | 191 | 0.0 | 0.0 | 0.07 | 2.89 | 2.89 | 79 | 1007.8 |
| 20260509230349 | 66 | 229 | 2.0 | 5.0 | 0.07 | 2.89 | 2.89 | 79 | 1007.8 |
| 20260509225845 | 66 | 183 | 2.0 | 2.0 | 0.07 | 2.88 | 2.88 | 79 | 1008.2 |
| 20260509225342 | 66 | 200 | 3.0 | 5.0 | 0.07 | 2.88 | 2.88 | 79 | 1008.2 |
| 20260509224838 | 66 | 214 | 3.0 | 5.0 | 0.00 | 2.87 | 2.87 | 79 | 1008.2 |
| 20260509224334 | 66 | 187 | 0.0 | 0.0 | 0.07 | 2.87 | 2.87 | 79 | 1008.2 |
| 20260509223831 | 66 | 199 | 3.0 | 5.0 | 0.07 | 2.87 | 2.87 | 79 | 1008.2 |
| 20260509223328 | 66 | 211 | 0.0 | 0.0 | 0.07 | 2.86 | 2.86 | 79 | 1008.2 |
| 20260509222825 | 66 | 176 | 0.0 | 0.0 | 0.07 | 2.86 | 2.86 | 79 | 1008.2 |
| 20260509222320 | 66 | 201 | 1.0 | 2.0 | 0.14 | 2.85 | 2.85 | 79 | 1008.2 |
| 20260509221815 | 66 | 217 | 4.0 | 5.0 | 0.21 | 2.83 | 2.83 | 79 | 1008.5 |
| 20260509221313 | 66 | 202 | 2.0 | 2.0 | 0.21 | 2.82 | 2.82 | 79 | 1008.8 |
| 20260509220808 | 66 | 231 | 3.0 | 5.0 | 0.14 | 2.80 | 2.80 | 79 | 1008.5 |
| 20260509220305 | 66 | 155 | 0.0 | 0.0 | 0.14 | 2.79 | 2.79 | 79 | 1008.5 |
| 20260509215800 | 66 | 156 | 0.0 | 0.0 | 0.07 | 2.76 | 2.76 | 79 | 1008.8 |
| 20260509215257 | 66 | 103 | 0.0 | 0.0 | 0.21 | 2.76 | 2.76 | 79 | 1008.8 |
| 20260509214754 | 66 | 160 | 0.0 | 0.0 | 0.28 | 2.75 | 2.75 | 79 | 1008.5 |
| 20260509214251 | 66 | 121 | 0.0 | 0.0 | 0.21 | 2.72 | 2.72 | 79 | 1008.8 |
| 20260509213748 | 66 | 167 | 0.0 | 0.0 | 0.21 | 2.70 | 2.70 | 79 | 1008.8 |
| 20260509213243 | 66 | 103 | 0.0 | 0.0 | 0.21 | 2.68 | 2.68 | 79 | 1008.8 |
| 20260509212741 | 66 | 170 | 0.0 | 0.0 | 0.21 | 2.66 | 2.66 | 79 | 1009.2 |
| 20260509212238 | 66 | 171 | 0.0 | 0.0 | 0.21 | 2.65 | 2.65 | 79 | 1009.5 |
| 20260509211734 | 66 | 88 | 0.0 | 0.0 | 0.14 | 2.62 | 2.62 | 79 | 1009.2 |
| 20260509211230 | 66 | 129 | 0.0 | 0.0 | 0.21 | 2.61 | 2.61 | 79 | 1008.8 |
| 20260509210727 | 66 | 96 | 0.0 | 0.0 | 0.21 | 2.60 | 2.60 | 79 | 1008.8 |
| 20260509210225 | 66 | 176 | 0.0 | 0.0 | 0.14 | 2.57 | 2.57 | 79 | 1008.8 |
| 20260509205724 | 66 | 181 | 0.0 | 0.0 | 0.14 | 2.56 | 2.56 | 79 | 1008.8 |
| 20260509205224 | 66 | 171 | 0.0 | 0.0 | 0.14 | 2.55 | 2.55 | 79 | 1008.5 |
| 20260509204720 | 66 | 190 | 0.0 | 0.0 | 0.21 | 2.54 | 2.54 | 79 | 1008.5 |
| 20260509204217 | 66 | 184 | 0.0 | 0.0 | 0.43 | 2.52 | 2.52 | 79 | 1009.2 |
| 20260509203713 | 66 | 229 | 0.0 | 0.0 | 0.43 | 2.50 | 2.50 | 79 | 1009.2 |
| 20260509203211 | 66 | 160 | 0.0 | 0.0 | 0.28 | 2.44 | 2.44 | 79 | 1009.2 |
| 20260509202706 | 66 | 223 | 0.0 | 0.0 | 0.28 | 2.42 | 2.42 | 79 | 1009.5 |
| 20260509202201 | 66 | 95 | 0.0 | 0.0 | 0.28 | 2.40 | 2.40 | 79 | 1009.2 |
| 20260509201657 | 66 | 94 | 3.0 | 5.0 | 0.21 | 2.36 | 2.36 | 79 | 1008.5 |
| 20260509201154 | 66 | 279 | 0.0 | 0.0 | 0.21 | 2.34 | 2.34 | 79 | 1009.2 |
| 20260509200650 | 67 | 164 | 0.0 | 0.0 | 0.71 | 2.33 | 2.33 | 79 | 1008.8 |
| 20260509200145 | 67 | 180 | 0.0 | 0.0 | 0.78 | 2.30 | 2.30 | 79 | 1008.8 |
| 20260509195642 | 67 | 215 | 3.0 | 8.0 | 0.28 | 2.20 | 2.20 | 79 | 1008.8 |
| 20260509195137 | 67 | 201 | 0.0 | 0.0 | 0.28 | 2.17 | 2.17 | 79 | 1008.8 |
| 20260509194637 | 67 | 161 | 0.0 | 2.0 | 0.28 | 2.15 | 2.15 | 79 | 1008.5 |
| 20260509194134 | 67 | 198 | 4.0 | 5.0 | 0.14 | 2.11 | 2.11 | 79 | 1008.8 |
| 20260509193630 | 67 | 236 | 0.0 | 0.0 | 0.21 | 2.10 | 2.10 | 79 | 1009.2 |
| 20260509193126 | 67 | 188 | 0.0 | 0.0 | 0.07 | 2.08 | 2.08 | 79 | 1008.8 |
| 20260509192623 | 67 | 196 | 2.0 | 2.0 | 0.07 | 2.07 | 2.07 | 79 | 1009.5 |
| 20260509192118 | 67 | 202 | 0.0 | 0.0 | 0.07 | 2.07 | 2.07 | 79 | 1009.2 |
| 20260509191618 | 67 | 213 | 5.0 | 8.0 | 0.00 | 2.06 | 2.06 | 79 | 1009.2 |
| 20260509191115 | 67 | 185 | 0.0 | 0.0 | 0.00 | 2.06 | 2.06 | 79 | 1009.2 |
| 20260509190611 | 67 | 193 | 0.0 | 0.0 | 0.00 | 2.06 | 2.06 | 79 | 1009.5 |
| 20260509190109 | 67 | 177 | 2.0 | 2.0 | 0.00 | 2.06 | 2.06 | 79 | 1009.5 |
| 20260509185606 | 67 | 211 | 4.0 | 5.0 | 0.07 | 2.06 | 2.06 | 79 | 1009.5 |
| 20260509185102 | 67 | 215 | 3.0 | 5.0 | 0.07 | 2.06 | 2.06 | 79 | 1009.5 |
| 20260509184601 | 67 | 191 | 0.0 | 0.0 | 0.00 | 2.04 | 2.04 | 79 | 1009.2 |
| 20260509184057 | 67 | 159 | 0.0 | 0.0 | 0.00 | 2.04 | 2.04 | 79 | 1009.2 |
| 20260509183552 | 67 | 129 | 0.0 | 0.0 | 0.00 | 2.04 | 2.04 | 79 | 1009.5 |
| 20260509183048 | 67 | 178 | 0.0 | 0.0 | 0.00 | 2.04 | 2.04 | 79 | 1009.9 |
| 20260509182545 | 67 | 200 | 0.0 | 0.0 | 0.00 | 2.04 | 2.04 | 79 | 1009.9 |
| 20260509182042 | 67 | 177 | 0.0 | 0.0 | 0.00 | 2.04 | 2.04 | 79 | 1009.9 |
| 20260509181540 | 67 | 173 | 0.0 | 0.0 | 0.00 | 2.04 | 2.04 | 79 | 1009.9 |
| 20260509181037 | 67 | 159 | 0.0 | 0.0 | 0.00 | 2.04 | 2.04 | 79 | 1009.5 |
| 20260509180532 | 67 | 144 | 0.0 | 0.0 | 0.00 | 2.04 | 2.04 | 79 | 1009.5 |
| 20260509180030 | 67 | 113 | 2.0 | 2.0 | 0.00 | 2.04 | 2.04 | 79 | 1009.2 |
| 20260509175525 | 67 | 89 | 2.0 | 5.0 | 0.00 | 2.04 | 2.04 | 79 | 1009.2 |
| 20260509175023 | 67 | 130 | 1.0 | 2.0 | 0.00 | 2.04 | 2.04 | 79 | 1009.2 |
| 20260509174519 | 67 | 139 | 0.0 | 0.0 | 0.00 | 2.04 | 2.04 | 79 | 1009.2 |
| 20260509174014 | 67 | 114 | 0.0 | 0.0 | 0.00 | 2.04 | 2.04 | 79 | 1009.2 |
| 20260509173508 | 67 | 120 | 2.0 | 2.0 | 0.00 | 2.04 | 2.04 | 79 | 1009.2 |
| 20260509173005 | 67 | 119 | 0.0 | 0.0 | 0.00 | 2.04 | 2.04 | 79 | 1009.5 |
| 20260509172502 | 66 | 144 | 0.0 | 0.0 | 0.00 | 2.04 | 2.04 | 79 | 1009.9 |
| 20260509171958 | 66 | 121 | 0.0 | 0.0 | 0.00 | 2.04 | 2.04 | 79 | 1009.5 |
| 20260509171454 | 66 | 119 | 0.0 | 0.0 | 0.00 | 2.04 | 2.04 | 79 | 1009.2 |
| 20260509170951 | 66 | 149 | 0.0 | 0.0 | 0.00 | 2.04 | 2.04 | 79 | 1009.5 |
| 20260509170446 | 66 | 156 | 0.0 | 0.0 | 0.00 | 2.04 | 2.04 | 79 | 1009.5 |
| 20260509165942 | 66 | 156 | 0.0 | 0.0 | 0.00 | 2.04 | 2.04 | 79 | 1009.5 |
| 20260509165441 | 66 | 111 | 2.0 | 2.0 | 0.00 | 2.04 | 2.04 | 79 | 1009.5 |
| 20260509164937 | 66 | 164 | 0.0 | 0.0 | 0.00 | 2.04 | 2.04 | 79 | 1009.9 |
| 20260509164433 | 66 | 165 | 0.0 | 0.0 | 0.00 | 2.04 | 2.04 | 79 | 1009.9 |
| 20260509163929 | 66 | 185 | 0.0 | 0.0 | 0.00 | 2.04 | 2.04 | 79 | 1009.9 |
| 20260509163427 | 66 | 188 | 0.0 | 0.0 | 0.00 | 2.04 | 2.04 | 79 | 1009.9 |
| 20260509162926 | 66 | 183 | 0.0 | 0.0 | 0.00 | 2.04 | 2.04 | 79 | 1009.9 |
| 20260509162425 | 66 | 152 | 0.0 | 0.0 | 0.00 | 2.04 | 2.04 | 79 | 1009.9 |
| 20260509161920 | 66 | 184 | 0.0 | 0.0 | 0.00 | 2.04 | 2.04 | 79 | 1009.5 |
| 20260509161417 | 66 | 146 | 0.0 | 0.0 | 0.00 | 2.04 | 2.04 | 79 | 1009.5 |
| 20260509160912 | 66 | 155 | 0.0 | 0.0 | 0.00 | 2.04 | 2.04 | 79 | 1009.5 |
| 20260509160408 | 66 | 79 | 0.0 | 0.0 | 0.00 | 2.04 | 2.04 | 79 | 1009.5 |
| 20260509155903 | 66 | 145 | 0.0 | 0.0 | 0.00 | 2.04 | 2.04 | 79 | 1009.5 |
| 20260509155400 | 66 | 137 | 0.0 | 0.0 | 0.00 | 2.04 | 2.04 | 79 | 1009.9 |
| 20260509154857 | 66 | 189 | 0.0 | 0.0 | 0.00 | 2.04 | 2.04 | 79 | 1010.2 |
| 20260509154353 | 66 | 191 | 0.0 | 0.0 | 0.00 | 2.04 | 2.04 | 79 | 1009.9 |
| 20260509153850 | 66 | 169 | 0.0 | 0.0 | 0.00 | 2.04 | 2.04 | 79 | 1009.9 |
| 20260509153347 | 66 | 140 | 0.0 | 0.0 | 0.00 | 2.04 | 2.04 | 79 | 1009.9 |
| 20260509152844 | 66 | 129 | 0.0 | 0.0 | 0.00 | 2.04 | 2.04 | 79 | 1009.9 |
| 20260509152340 | 66 | 159 | 0.0 | 0.0 | 0.00 | 2.04 | 2.04 | 79 | 1009.9 |
| 20260509151837 | 66 | 106 | 0.0 | 0.0 | 0.00 | 2.04 | 2.04 | 79 | 1009.9 |
| 20260509151333 | 66 | 163 | 0.0 | 0.0 | 0.00 | 2.04 | 2.04 | 79 | 1009.9 |
| 20260509150832 | 66 | 205 | 0.0 | 0.0 | 0.00 | 2.04 | 2.04 | 79 | 1009.9 |
| 20260509150329 | 66 | 201 | 0.0 | 0.0 | 0.00 | 2.04 | 2.04 | 79 | 1009.9 |
| 20260509145826 | 66 | 163 | 0.0 | 0.0 | 0.00 | 2.04 | 2.04 | 79 | 1009.9 |
| 20260509145321 | 65 | 161 | 0.0 | 0.0 | 0.00 | 2.04 | 2.04 | 79 | 1009.5 |
| 20260509144818 | 65 | 76 | 0.0 | 0.0 | 0.00 | 2.04 | 2.04 | 79 | 1009.5 |
| 20260509144315 | 65 | 169 | 0.0 | 0.0 | 0.00 | 2.04 | 2.04 | 79 | 1009.5 |
| 20260509143812 | 65 | 166 | 0.0 | 0.0 | 0.00 | 2.04 | 2.04 | 79 | 1009.2 |
| 20260509143309 | 65 | 130 | 0.0 | 0.0 | 0.00 | 2.04 | 2.04 | 79 | 1009.2 |
| 20260509142805 | 65 | 29 | 0.0 | 0.0 | 0.00 | 2.04 | 2.04 | 79 | 1009.2 |
| 20260509142301 | 65 | 203 | 0.0 | 0.0 | 0.00 | 2.04 | 2.04 | 79 | 1009.2 |
| 20260509141757 | 65 | 178 | 0.0 | 0.0 | 0.00 | 2.04 | 2.04 | 79 | 1009.2 |
| 20260509141254 | 65 | 163 | 0.0 | 0.0 | 0.00 | 2.04 | 2.04 | 79 | 1008.8 |
| 20260509140751 | 65 | 118 | 0.0 | 0.0 | 0.00 | 2.04 | 2.04 | 79 | 1008.8 |
| 20260509140248 | 65 | 188 | 0.0 | 0.0 | 0.00 | 2.04 | 2.04 | 79 | 1008.8 |
| 20260509135746 | 65 | 181 | 0.0 | 0.0 | 0.00 | 2.04 | 2.04 | 79 | 1008.8 |
| 20260509135243 | 65 | 151 | 0.0 | 0.0 | 0.00 | 2.04 | 2.04 | 79 | 1008.5 |
| 20260509134740 | 65 | 156 | 0.0 | 0.0 | 0.07 | 2.04 | 2.04 | 79 | 1008.8 |
| 20260509134238 | 65 | 219 | 0.0 | 0.0 | 0.07 | 2.04 | 2.04 | 79 | 1008.8 |
| 20260509133735 | 65 | 153 | 0.0 | 0.0 | 0.00 | 2.03 | 2.03 | 79 | 1008.8 |
| 20260509133231 | 65 | 109 | 1.0 | 2.0 | 0.07 | 2.03 | 2.03 | 79 | 1008.8 |
| 20260509132730 | 65 | 160 | 0.0 | 0.0 | 0.14 | 2.03 | 2.03 | 79 | 1008.8 |
| 20260509132228 | 65 | 159 | 0.0 | 0.0 | 0.43 | 2.02 | 2.02 | 79 | 1008.8 |
| 20260509131725 | 65 | 186 | 0.0 | 0.0 | 0.64 | 2.00 | 2.00 | 79 | 1009.2 |
| 20260509131221 | 65 | 137 | 0.0 | 0.0 | 0.43 | 1.94 | 1.94 | 79 | 1008.8 |
| 20260509130717 | 65 | 230 | 0.0 | 0.0 | 0.57 | 1.89 | 1.89 | 79 | 1009.2 |
| 20260509130213 | 65 | 156 | 0.0 | 0.0 | 0.85 | 1.87 | 1.87 | 79 | 1009.2 |
| 20260509125710 | 65 | 296 | 0.0 | 0.0 | 0.28 | 1.77 | 1.77 | 79 | 1009.5 |
| 20260509125207 | 65 | 164 | 0.0 | 0.0 | 0.07 | 1.72 | 1.72 | 79 | 1009.2 |
| 20260509124703 | 65 | 143 | 0.0 | 0.0 | 0.21 | 1.72 | 1.72 | 79 | 1008.5 |
| 20260509124200 | 65 | 112 | 0.0 | 0.0 | 0.28 | 1.71 | 1.71 | 79 | 1008.8 |
| 20260509123658 | 65 | 163 | 2.0 | 2.0 | 0.50 | 1.69 | 1.69 | 79 | 1008.2 |
| 20260509123155 | 65 | 104 | 3.0 | 5.0 | 0.85 | 1.67 | 1.67 | 79 | 1008.8 |
| 20260509122650 | 65 | 115 | 3.0 | 5.0 | 1.13 | 1.57 | 1.57 | 79 | 1009.2 |
| 20260509122147 | 65 | 42 | 3.0 | 5.0 | 1.20 | 1.49 | 1.49 | 79 | 1008.8 |
| 20260509121644 | 65 | 36 | 0.0 | 0.0 | 0.85 | 1.37 | 1.37 | 79 | 1009.2 |
| 20260509121142 | 65 | 140 | 0.0 | 0.0 | 0.71 | 1.28 | 1.28 | 79 | 1009.2 |
| 20260509120640 | 65 | 176 | 0.0 | 0.0 | 0.85 | 1.20 | 1.20 | 79 | 1008.8 |
| 20260509120138 | 65 | 74 | 1.0 | 2.0 | 0.99 | 1.16 | 1.16 | 79 | 1008.8 |
| 20260509115635 | 66 | 126 | 0.0 | 0.0 | 1.70 | 1.05 | 1.05 | 79 | 1009.2 |
| 20260509115132 | 67 | 33 | 6.0 | 10.0 | 2.48 | 0.97 | 0.97 | 79 | 1008.8 |
| 20260509114630 | 68 | 60 | 10.0 | 13.0 | 1.35 | 0.72 | 0.72 | 79 | 1009.5 |
| 20260509114129 | 68 | 25 | 8.0 | 15.0 | 0.28 | 0.54 | 0.54 | 79 | 1009.5 |
| 20260509113627 | 69 | 88 | 6.0 | 8.0 | 0.00 | 0.50 | 0.50 | 79 | 1008.8 |
| 20260509113124 | 69 | 332 | 6.0 | 8.0 | 0.00 | 0.50 | 0.50 | 79 | 1009.2 |
| 20260509112620 | 69 | 44 | 3.0 | 5.0 | 0.00 | 0.50 | 0.50 | 79 | 1008.8 |
| 20260509112118 | 69 | 127 | 0.0 | 0.0 | 0.00 | 0.50 | 0.50 | 79 | 1007.8 |
| 20260509111615 | 69 | 164 | 0.0 | 0.0 | 0.00 | 0.50 | 0.50 | 79 | 1007.1 |
| 20260509111111 | 69 | 253 | 0.0 | 0.0 | 0.00 | 0.50 | 0.50 | 79 | 1007.1 |
| 20260509110609 | 69 | 207 | 0.0 | 0.0 | 0.00 | 0.50 | 0.50 | 79 | 1007.1 |
| 20260509110106 | 69 | 174 | 0.0 | 0.0 | 0.00 | 0.50 | 0.50 | 79 | 1006.5 |
| 20260509105604 | 69 | 212 | 0.0 | 0.0 | 0.00 | 0.50 | 0.50 | 79 | 1006.5 |
| 20260509105101 | 69 | 214 | 0.0 | 0.0 | 0.00 | 0.50 | 0.50 | 79 | 1006.5 |
| 20260509104558 | 69 | 206 | 0.0 | 0.0 | 0.00 | 0.50 | 0.50 | 79 | 1006.1 |
| 20260509104055 | 69 | 211 | 0.0 | 0.0 | 0.00 | 0.50 | 0.50 | 79 | 1006.1 |
| 20260509103553 | 69 | 173 | 0.0 | 0.0 | 0.00 | 0.50 | 0.50 | 79 | 1006.1 |
| 20260509103051 | 69 | 200 | 0.0 | 0.0 | 0.00 | 0.50 | 0.50 | 79 | 1005.8 |
| 20260509102548 | 69 | 185 | 0.0 | 0.0 | 0.00 | 0.50 | 0.50 | 79 | 1006.1 |
| 20260509102044 | 69 | 167 | 0.0 | 0.0 | 0.00 | 0.50 | 0.50 | 79 | 1006.5 |
| 20260509101540 | 69 | 172 | 0.0 | 0.0 | 0.00 | 0.50 | 0.50 | 79 | 1006.8 |
| 20260509101038 | 69 | 186 | 0.0 | 0.0 | 0.00 | 0.50 | 0.50 | 79 | 1006.8 |
| 20260509100535 | 69 | 185 | 0.0 | 0.0 | 0.00 | 0.50 | 0.50 | 79 | 1006.5 |
| 20260509100032 | 69 | 173 | 0.0 | 0.0 | 0.00 | 0.50 | 0.50 | 79 | 1006.5 |
| 20260509095529 | 69 | 178 | 0.0 | 0.0 | 0.00 | 0.50 | 0.50 | 79 | 1006.1 |
| 20260509095026 | 69 | 175 | 0.0 | 0.0 | 0.00 | 0.50 | 0.50 | 79 | 1006.5 |
| 20260509094522 | 69 | 188 | 0.0 | 0.0 | 0.00 | 0.50 | 0.50 | 79 | 1006.5 |
| 20260509094020 | 69 | 210 | 0.0 | 0.0 | 0.00 | 0.50 | 0.50 | 79 | 1005.8 |
| 20260509093518 | 69 | 160 | 0.0 | 0.0 | 0.00 | 0.50 | 0.50 | 79 | 1005.8 |
| 20260509093015 | 69 | 187 | 0.0 | 0.0 | 0.00 | 0.50 | 0.50 | 79 | 1005.8 |
| 20260509092513 | 69 | 167 | 0.0 | 0.0 | 0.00 | 0.50 | 0.50 | 79 | 1005.8 |
| 20260509092011 | 69 | 176 | 0.0 | 0.0 | 0.00 | 0.50 | 0.50 | 79 | 1005.8 |
| 20260509091508 | 69 | 195 | 0.0 | 0.0 | 0.00 | 0.50 | 0.50 | 79 | 1005.8 |
| 20260509091005 | 69 | 169 | 0.0 | 0.0 | 0.00 | 0.50 | 0.50 | 79 | 1006.1 |
| 20260509090502 | 69 | 176 | 0.0 | 0.0 | 0.00 | 0.50 | 0.50 | 79 | 1006.1 |
| 20260509090000 | 69 | 176 | 0.0 | 0.0 | 0.00 | 0.50 | 0.50 | 79 | 1006.1 |
| 20260509085456 | 69 | 159 | 0.0 | 0.0 | 0.00 | 0.50 | 0.50 | 79 | 1006.1 |
| 20260509084952 | 69 | 207 | 0.0 | 0.0 | 0.00 | 0.50 | 0.50 | 79 | 1006.5 |
| 20260509084449 | 69 | 214 | 0.0 | 0.0 | 0.00 | 0.50 | 0.50 | 79 | 1006.5 |
| 20260509083947 | 69 | 176 | 0.0 | 0.0 | 0.00 | 0.50 | 0.50 | 79 | 1006.8 |
| 20260509083444 | 69 | 202 | 0.0 | 0.0 | 0.00 | 0.50 | 0.50 | 79 | 1006.8 |
| 20260509082941 | 69 | 174 | 0.0 | 0.0 | 0.00 | 0.50 | 0.50 | 79 | 1006.8 |
| 20260509082438 | 69 | 176 | 0.0 | 0.0 | 0.00 | 0.50 | 0.50 | 79 | 1007.1 |
| 20260509081935 | 69 | 234 | 0.0 | 0.0 | 0.00 | 0.50 | 0.50 | 79 | 1007.1 |
| 20260509081432 | 69 | 178 | 0.0 | 0.0 | 0.00 | 0.50 | 0.50 | 79 | 1006.8 |
| 20260509080929 | 69 | 175 | 0.0 | 0.0 | 0.00 | 0.50 | 0.50 | 79 | 1007.1 |
| 20260509080427 | 69 | 193 | 0.0 | 0.0 | 0.00 | 0.50 | 0.50 | 79 | 1007.1 |
| 20260509075925 | 69 | 160 | 0.0 | 0.0 | 0.00 | 0.50 | 0.50 | 79 | 1007.1 |
| 20260509075422 | 69 | 177 | 0.0 | 0.0 | 0.00 | 0.50 | 0.50 | 79 | 1007.1 |
| 20260509074919 | 69 | 197 | 0.0 | 0.0 | 0.00 | 0.50 | 0.50 | 79 | 1007.1 |
| 20260509074417 | 69 | 174 | 0.0 | 0.0 | 0.00 | 0.50 | 0.50 | 79 | 1007.1 |
| 20260509073913 | 69 | 177 | 0.0 | 0.0 | 0.21 | 0.50 | 0.50 | 79 | 1007.5 |
| 20260509073410 | 69 | 202 | 1.0 | 2.0 | 0.64 | 0.50 | 0.50 | 79 | 1007.1 |
| 20260509072906 | 69 | 151 | 2.0 | 2.0 | 0.64 | 0.45 | 0.45 | 79 | 1007.5 |
| 20260509072403 | 69 | 283 | 6.0 | 8.0 | 0.43 | 0.39 | 0.39 | 79 | 1007.8 |
| 20260509071859 | 69 | 186 | 3.0 | 5.0 | 0.64 | 0.34 | 0.34 | 79 | 1008.2 |
| 20260509071356 | 68 | 210 | 8.0 | 10.0 | 0.99 | 0.30 | 0.30 | 79 | 1008.2 |
| 20260509070854 | 68 | 178 | 4.0 | 5.0 | 0.57 | 0.21 | 0.21 | 79 | 1008.2 |
| 20260509070350 | 68 | 232 | 6.0 | 8.0 | 0.43 | 0.13 | 0.13 | 79 | 1007.8 |
| 20260509065846 | 68 | 179 | 3.0 | 5.0 | 0.21 | 0.08 | 0.08 | 79 | 1008.2 |
| 20260509065343 | 68 | 159 | 0.0 | 0.0 | 0.00 | 0.05 | 0.05 | 79 | 1008.2 |
| 20260509064839 | 68 | 183 | 0.0 | 0.0 | 0.00 | 0.05 | 0.05 | 79 | 1008.2 |
| 20260509064337 | 68 | 158 | 0.0 | 0.0 | 0.00 | 0.05 | 0.05 | 79 | 1008.2 |
| 20260509063834 | 68 | 233 | 0.0 | 0.0 | 0.00 | 0.05 | 0.05 | 79 | 1008.5 |
| 20260509063330 | 68 | 174 | 0.0 | 0.0 | 0.00 | 0.05 | 0.05 | 79 | 1008.2 |
| 20260509062827 | 68 | 185 | 0.0 | 0.0 | 0.00 | 0.05 | 0.05 | 79 | 1008.8 |
| 20260509062324 | 68 | 159 | 0.0 | 0.0 | 0.00 | 0.05 | 0.05 | 79 | 1008.5 |
| 20260509061821 | 68 | 177 | 0.0 | 0.0 | 0.00 | 0.05 | 0.05 | 79 | 1008.8 |
| 20260509061320 | 68 | 180 | 0.0 | 0.0 | 0.07 | 0.05 | 0.05 | 79 | 1008.8 |
| 20260509060816 | 68 | 231 | 0.0 | 0.0 | 0.07 | 0.05 | 0.05 | 79 | 1008.8 |
| 20260509060313 | 68 | 162 | 0.0 | 0.0 | 0.00 | 0.04 | 0.04 | 79 | 1008.2 |
| 20260509055809 | 68 | 163 | 0.0 | 0.0 | 0.00 | 0.04 | 0.04 | 79 | 1009.2 |
| 20260509055306 | 68 | 193 | 0.0 | 0.0 | 0.00 | 0.04 | 0.04 | 79 | 1009.2 |